Terminal Aerodrome Forecast
Issued by NWS

Home | Current Version | Previous Version | Text Only | Print | Product List | Glossary On
Versions: 1 2 3 4 5 6 7 8 9 10 11 12
000
FTUS42 KGSP 310537
TAFGMU
TAF
KGMU 310537Z 3106/0106 01003KT P6SM FEW250
     FM311400 09004KT P6SM FEW060 BKN140
     FM311800 00000KT P6SM SCT060 BKN120
     FM010000 33005KT P6SM VCSH BKN050
     FM010500 32010KT P6SM -RA BKN060=

USA.gov is the U.S. government's official web portal to all federal, state and local government web resources and services.